Portada
METAR-TAF:

METAR-TAF

Aeropuertos :

Tokushima, Japón

latitud: 34-08N, longitud: 134-37E, altitud: 8 m

Observación

El informe se hizo hace 25 minutos, a las 23:00 UTC
Viento 20 kt del norte-noreste con ráfagas de 30 kt
Temperatura 22°C
Humedad 53%
Presión 1010 hPa
Visibilidad 10 km o más
Escasas nubes a una altura de 3000 ft
Nubes dispersas a una altura de 6000 ft

METAR: RJOS 062300Z 02020G30KT 9999 FEW030 SCT060 22/12 Q1010

Hora: 08:25 (23:25 UTC)


TAF: falta

Observaciones y pronósticos meteorológicos de más de 4000 aeropuertos (mensajes METAR y TAF).

Los puntos amarillos y rojos representan las estaciones disponibles.

Ponga el ratón en el punto deseado para ver el nombre de la estación.

Haga clic para ver las observaciones y los pronósticos meteorológicos.

Para cambiar el mapa : haga clic en los botones verdes con una cruz de color negro para hacer un zoom, en el botón verde con un guión para alejar o en las flechas verdes para mapas adyacentes.


METAR-TAF: